Besiktas Bosphorus — TCOG3 — position and weather

sailwx.info

Track history (hours):
 
Tides and Currents Weather Stations Pressure Air Temp Water Temp Dewpoint Dewpoint Depression Visibility Wind Speed Wind Dir Waves Ship Positions

Besiktas Bosphorus

Last reported at 2017-Oct-15 00:08 UTC. Time now 2017-Oct-18 00:26 UTC.
Position N 44°08' E 034°03'.

Length 274 m; draft 9 m.

Type: Ship (hazmat cat D). MMSI: 271000817.

Date/timePositionNaut miles runAvg speedWind from/ knotsBaromVisibWave heightAir tempDewpointWater temp
2017-Oct-15 00:08N 44°08' E 034°03'4 8.0
2017-Oct-14 23:40N 44°08' E 033°58'2 8.2
2017-Oct-14 23:28N 44°08' E 033°56'195 7.0
2017-Oct-13 19:28N 43°59' E 029°25'613.8
2017-Oct-13 19:00N 43°59' E 029°16'713.7
2017-Oct-13 18:30N 43°59' E 029°07'713.4
2017-Oct-13 18:00N 43°59' E 028°57'612.8
2017-Oct-13 17:30N 43°59' E 028°49'713.2
2017-Oct-13 17:00N 44°04' E 028°43'5 9.2
2017-Oct-13 16:30N 44°08' E 028°41'1 1.3
2017-Oct-13 15:58N 44°09' E 028°40'0 0.0
2017-Oct-13 15:28N 44°09' E 028°40'0 0.0
2017-Oct-13 14:55N 44°09' E 028°40'0 0.0
2017-Oct-13 14:28N 44°09' E 028°40'0 0.0
2017-Oct-13 13:58N 44°09' E 028°40'0 0.0
2017-Oct-13 13:28N 44°09' E 028°40'0 0.0
2017-Oct-13 12:58N 44°09' E 028°40'0 0.0
2017-Oct-13 12:28N 44°09' E 028°40'0 0.0
2017-Oct-13 11:58N 44°09' E 028°40'0 0.0
2017-Oct-13 11:28N 44°09' E 028°40'0 0.0
2017-Oct-13 10:58N 44°09' E 028°40'0 0.0
2017-Oct-13 10:28N 44°09' E 028°40'0 0.0
2017-Oct-13 09:58N 44°09' E 028°40'0 0.0
2017-Oct-13 09:28N 44°09' E 028°40'0 0.0
2017-Oct-13 08:58N 44°09' E 028°40'0 0.0
2017-Oct-13 08:28N 44°09' E 028°40'0 0.0
2017-Oct-13 07:58N 44°09' E 028°40'0 0.0
2017-Oct-13 07:28N 44°09' E 028°40'0 0.0
2017-Oct-13 06:58N 44°09' E 028°40'0 0.0
2017-Oct-13 06:28N 44°09' E 028°40'0 0.0
2017-Oct-13 05:58N 44°09' E 028°40'0 0.0
2017-Oct-13 05:28N 44°09' E 028°40'0 0.0
2017-Oct-13 04:58N 44°09' E 028°40'0 0.0
2017-Oct-13 04:28N 44°09' E 028°40'0 0.0
2017-Oct-13 03:58N 44°09' E 028°40'0 0.0
2017-Oct-13 03:28N 44°09' E 028°40'0 0.0
2017-Oct-13 02:58N 44°09' E 028°40'0 0.0
2017-Oct-13 02:28N 44°09' E 028°40'0 0.0
2017-Oct-13 01:58N 44°09' E 028°40'0 0.0
2017-Oct-13 01:28N 44°09' E 028°40'0 0.0
2017-Oct-13 00:58N 44°09' E 028°40'0 0.0
2017-Oct-13 00:28N 44°09' E 028°40'0 0.0
2017-Oct-12 23:58N 44°09' E 028°40'0 0.0
2017-Oct-12 23:25N 44°09' E 028°40'0 0.0
2017-Oct-12 22:58N 44°09' E 028°40'0 0.0
2017-Oct-12 22:28N 44°09' E 028°40'0 0.0
2017-Oct-12 21:58N 44°09' E 028°40'0 0.0
2017-Oct-12 21:28N 44°09' E 028°40'0 0.0
2017-Oct-12 20:58N 44°09' E 028°40'0 0.0
2017-Oct-12 20:28N 44°09' E 028°40'0 0.0
2017-Oct-12 19:58N 44°09' E 028°40'0 0.0
2017-Oct-12 19:28N 44°09' E 028°40'0 0.0
2017-Oct-12 18:58N 44°09' E 028°40'0 0.0
2017-Oct-12 18:28N 44°09' E 028°40'0 0.0
2017-Oct-12 17:58N 44°09' E 028°40'0 0.0
2017-Oct-12 17:28N 44°09' E 028°40'0 0.0
2017-Oct-12 16:58N 44°09' E 028°40'0 0.0
2017-Oct-12 16:28N 44°09' E 028°40'0 0.0
2017-Oct-12 15:58N 44°09' E 028°40'0 0.0
2017-Oct-12 15:28N 44°09' E 028°40'0 0.0
2017-Oct-12 14:58N 44°09' E 028°40'0 0.0
2017-Oct-12 14:28N 44°09' E 028°40'0 0.0
2017-Oct-12 13:58N 44°09' E 028°40'0 0.0
2017-Oct-12 13:28N 44°09' E 028°40'0 0.0
2017-Oct-12 12:58N 44°09' E 028°40'0 0.0
2017-Oct-12 12:28N 44°09' E 028°40'0 0.0
2017-Oct-12 11:52N 44°09' E 028°40'0 0.0
2017-Oct-12 11:28N 44°09' E 028°40'0 0.0
2017-Oct-12 10:58N 44°09' E 028°40'0 0.0
2017-Oct-12 10:28N 44°09' E 028°40'0 0.0
2017-Oct-12 09:58N 44°09' E 028°40'0 0.0
2017-Oct-12 09:25N 44°09' E 028°40'0 0.0
2017-Oct-12 08:58N 44°09' E 028°40'0 0.0
2017-Oct-12 08:28N 44°09' E 028°40'0 0.0
2017-Oct-12 07:58N 44°09' E 028°40'0 0.0
2017-Oct-12 07:28N 44°09' E 028°40'0 0.0
2017-Oct-12 06:58N 44°09' E 028°40'0 0.0
2017-Oct-12 06:28N 44°09' E 028°40'0 0.0
2017-Oct-12 05:58N 44°09' E 028°40'0 0.0
2017-Oct-12 05:28N 44°09' E 028°40'0 0.0
2017-Oct-12 04:58N 44°09' E 028°40'0 0.0
2017-Oct-12 04:28N 44°09' E 028°40'0 0.0
2017-Oct-12 03:58N 44°09' E 028°40'0 0.0
2017-Oct-12 03:28N 44°09' E 028°40'0 0.0
2017-Oct-12 02:58N 44°09' E 028°40'0 0.0
2017-Oct-12 02:28N 44°09' E 028°40'0 0.0
2017-Oct-12 01:58N 44°09' E 028°40'0 0.0
2017-Oct-12 01:28N 44°09' E 028°40'0 0.0
2017-Oct-12 00:58N 44°09' E 028°40'0 0.0
2017-Oct-12 00:28N 44°09' E 028°40'0 0.0
2017-Oct-11 23:58N 44°09' E 028°40'0 0.0
2017-Oct-11 23:28N 44°09' E 028°40'0 0.0
2017-Oct-11 22:58N 44°09' E 028°40'0 0.0
2017-Oct-11 22:28N 44°09' E 028°40'0 0.0
2017-Oct-11 21:58N 44°09' E 028°40'0 0.0
2017-Oct-11 21:28N 44°09' E 028°40'0 0.0
2017-Oct-11 20:58N 44°09' E 028°40'0 0.0
2017-Oct-11 20:28N 44°09' E 028°40'0 0.0
2017-Oct-11 19:58N 44°09' E 028°40'0 0.0
2017-Oct-11 19:28N 44°09' E 028°40'0 0.0
2017-Oct-11 18:58N 44°09' E 028°40'0 0.0
2017-Oct-11 18:28N 44°09' E 028°40'0 0.0
2017-Oct-11 17:58N 44°09' E 028°40'0 0.0
2017-Oct-11 17:28N 44°09' E 028°40'0 0.0
2017-Oct-11 16:58N 44°09' E 028°40'0 0.0
2017-Oct-10 23:58N 44°09' E 028°40'0 0.0
2017-Oct-10 23:28N 44°09' E 028°40'0 0.0
2017-Oct-10 22:58N 44°09' E 028°40'0 0.0
2017-Oct-10 22:28N 44°09' E 028°40'0 0.0
2017-Oct-10 21:58N 44°09' E 028°40'0 0.0
2017-Oct-10 21:28N 44°09' E 028°40'0 0.0
2017-Oct-10 20:58N 44°09' E 028°40'0 0.0
2017-Oct-10 20:28N 44°09' E 028°40'0 0.0
2017-Oct-10 19:58N 44°09' E 028°40'0 0.0
2017-Oct-10 19:28N 44°09' E 028°40'0 0.0
2017-Oct-10 18:58N 44°09' E 028°40'0 0.0
2017-Oct-10 18:28N 44°09' E 028°40'0 0.0
2017-Oct-10 17:58N 44°09' E 028°40'0 0.0
2017-Oct-10 17:28N 44°09' E 028°40'0 0.0
2017-Oct-10 16:58N 44°09' E 028°40'0 0.0
2017-Oct-10 16:28N 44°09' E 028°40'0 0.0
2017-Oct-10 15:58N 44°09' E 028°40'0 0.0
2017-Oct-10 15:28N 44°09' E 028°40'0 0.0
2017-Oct-10 14:58N 44°09' E 028°40'0 0.0
2017-Oct-10 13:58N 44°09' E 028°40'0 0.0
2017-Oct-10 13:28N 44°09' E 028°40'0 0.0
2017-Oct-10 12:58N 44°09' E 028°40'0 0.0
2017-Oct-10 12:28N 44°09' E 028°40'0 0.0
2017-Oct-10 11:58N 44°09' E 028°40'0 0.0
2017-Oct-10 11:28N 44°09' E 028°40'0 0.0
2017-Oct-10 10:58N 44°09' E 028°40'0 0.0
2017-Oct-10 10:28N 44°09' E 028°40'0 0.0
2017-Oct-10 09:58N 44°09' E 028°40'0 0.0
2017-Oct-10 09:28N 44°09' E 028°40'0 0.0
2017-Oct-10 08:55N 44°09' E 028°40'0 0.0
2017-Oct-10 08:28N 44°09' E 028°40'0 0.0
2017-Oct-10 07:58N 44°09' E 028°40'0 0.0
2017-Oct-10 07:28N 44°09' E 028°40'0 0.0
2017-Oct-10 06:58N 44°09' E 028°40'0 0.0
2017-Oct-10 06:28N 44°09' E 028°40'0 0.0
2017-Oct-10 05:58N 44°09' E 028°40'0 0.0
2017-Oct-10 05:28N 44°09' E 028°40'0 0.0
2017-Oct-10 04:58N 44°09' E 028°40'0 0.0
2017-Oct-10 04:28N 44°09' E 028°40'0 0.0
2017-Oct-10 03:58N 44°09' E 028°40'0 0.0
2017-Oct-10 03:28N 44°09' E 028°40'0 0.0
2017-Oct-10 02:58N 44°09' E 028°40'0 0.0
2017-Oct-10 02:28N 44°09' E 028°40'0 0.0
2017-Oct-10 01:58N 44°09' E 028°40'0 0.0
2017-Oct-10 01:28N 44°09' E 028°40'0 0.0
2017-Oct-10 00:58N 44°09' E 028°40'0 0.0
2017-Oct-10 00:28N 44°09' E 028°40'0 0.0
2017-Oct-09 23:58N 44°09' E 028°40'0 0.0
2017-Oct-09 23:25N 44°09' E 028°40'0 0.0
2017-Oct-09 22:58N 44°09' E 028°40'0 0.0
2017-Oct-09 22:28N 44°09' E 028°40'0 0.0
2017-Oct-09 21:58N 44°09' E 028°40'0 0.0
2017-Oct-09 21:28N 44°09' E 028°40'0 0.0
2017-Oct-09 20:58N 44°09' E 028°40'0 0.0
2017-Oct-09 20:28N 44°09' E 028°40'0 0.0
2017-Oct-09 19:58N 44°09' E 028°40'0 0.0
2017-Oct-09 19:28N 44°09' E 028°40'0 0.0
2017-Oct-09 18:58N 44°09' E 028°40'0 0.0
2017-Oct-09 18:28N 44°09' E 028°40'0 0.0
2017-Oct-09 17:58N 44°09' E 028°40'0 0.0
2017-Oct-09 17:28N 44°09' E 028°40'0 0.0
2017-Oct-09 16:58N 44°09' E 028°40'0 0.0
2017-Oct-09 16:28N 44°09' E 028°40'0 0.0
2017-Oct-09 15:58N 44°09' E 028°40'0 0.0
2017-Oct-09 15:28N 44°09' E 028°40'0 0.0
2017-Oct-09 14:58N 44°09' E 028°40'0 0.0
2017-Oct-09 14:28N 44°09' E 028°40'0 0.0
2017-Oct-09 13:58N 44°09' E 028°40'0 0.0
2017-Oct-09 13:28N 44°09' E 028°40'0 0.0
2017-Oct-09 12:58N 44°09' E 028°40'0 0.0
2017-Oct-09 12:28N 44°09' E 028°40'0 0.0
2017-Oct-09 11:58N 44°09' E 028°40'0 0.0
2017-Oct-09 11:28N 44°09' E 028°40'0 0.0
2017-Oct-09 10:58N 44°09' E 028°40'0 0.0
2017-Oct-09 10:28N 44°09' E 028°40'0 0.0
2017-Oct-09 09:58N 44°09' E 028°40'0 0.0
2017-Oct-09 09:28N 44°09' E 028°40'0 0.0
2017-Oct-09 08:58N 44°09' E 028°40'0 0.0
2017-Oct-09 08:28N 44°09' E 028°40'0 0.0
2017-Oct-09 07:58N 44°09' E 028°40'0 0.0
2017-Oct-09 07:28N 44°09' E 028°40'0 0.0
2017-Oct-09 06:58N 44°09' E 028°40'0 0.0
2017-Oct-09 06:28N 44°09' E 028°40'0 0.0
2017-Oct-09 05:58N 44°09' E 028°40'0 0.0
2017-Oct-09 05:28N 44°09' E 028°40'0 0.0
2017-Oct-09 04:58N 44°09' E 028°40'0 0.0
2017-Oct-09 04:28N 44°09' E 028°40'0 0.0
2017-Oct-09 03:58N 44°09' E 028°40'0 0.0
2017-Oct-09 03:28N 44°09' E 028°40'0 0.0
2017-Oct-09 02:58N 44°09' E 028°40'0 0.0
2017-Oct-09 02:28N 44°09' E 028°40'0 0.0
2017-Oct-09 01:58N 44°09' E 028°40'0 0.0
2017-Oct-09 01:28N 44°09' E 028°40'0 0.0
2017-Oct-09 00:58N 44°09' E 028°40'0 0.0
2017-Oct-09 00:28N 44°09' E 028°40'0 0.0
2017-Oct-08 23:58N 44°09' E 028°40'0 0.0
2017-Oct-08 23:28N 44°09' E 028°40'0 0.0
2017-Oct-08 22:58N 44°09' E 028°40'0 0.0
2017-Oct-08 22:28N 44°09' E 028°40'0 0.0
2017-Oct-08 21:58N 44°09' E 028°40'0 0.0
2017-Oct-08 21:28N 44°09' E 028°40'0 0.0
2017-Oct-08 20:58N 44°09' E 028°40'0 0.0
2017-Oct-08 20:28N 44°09' E 028°40'0 0.0
2017-Oct-08 19:58N 44°09' E 028°40'0 0.0
2017-Oct-08 19:28N 44°09' E 028°40'0 0.0
2017-Oct-08 18:55N 44°09' E 028°40'0 0.0
2017-Oct-08 18:28N 44°09' E 028°40'0 0.0
2017-Oct-08 17:58N 44°09' E 028°40'0 0.0
2017-Oct-08 17:28N 44°09' E 028°40'0 0.0
2017-Oct-08 16:58N 44°09' E 028°40'0 0.0
2017-Oct-08 16:28N 44°09' E 028°40'0 0.0
2017-Oct-08 15:55N 44°09' E 028°40'0 0.0
2017-Oct-08 15:28N 44°09' E 028°40'0 0.0
2017-Oct-08 14:58N 44°09' E 028°40'0 0.0
2017-Oct-08 14:28N 44°09' E 028°40'0 0.0
2017-Oct-08 13:58N 44°09' E 028°40'0 0.0
2017-Oct-08 13:28N 44°09' E 028°40'0 0.0
2017-Oct-08 12:58N 44°09' E 028°40'0 0.0
2017-Oct-08 12:28N 44°09' E 028°40'0 0.0
2017-Oct-08 11:58N 44°09' E 028°40'0 0.0
2017-Oct-08 11:28N 44°09' E 028°40'0 0.0
2017-Oct-08 10:58N 44°09' E 028°40'0 0.0
2017-Oct-08 10:28N 44°09' E 028°40'0 0.0
2017-Oct-08 09:58N 44°09' E 028°40'0 0.0
2017-Oct-08 09:30N 44°09' E 028°40'0 0.7
2017-Oct-08 09:00N 44°08' E 028°40'2 4.5
2017-Oct-08 08:30N 44°07' E 028°42'4 8.3
2017-Oct-08 08:00N 44°03' E 028°46'3 6.0
2017-Oct-08 07:30N 44°01' E 028°48'4 7.9
2017-Oct-08 07:00N 43°59' E 028°53'612.1
2017-Oct-08 06:30N 44°01' E 029°01'2 3.8
2017-Oct-08 06:00N 43°59' E 029°02'2 4.4
2017-Oct-08 05:31N 43°57' E 029°00'4 7.7
2017-Oct-08 05:00N 44°01' E 029°01'4 8.2
2017-Oct-08 04:30N 44°05' E 029°03'4 7.8
2017-Oct-08 04:00N 44°09' E 029°05'3 5.5
2017-Oct-08 03:30N 44°11' E 029°06'3 6.4
2017-Oct-08 03:00N 44°08' E 029°05'3 6.6
2017-Oct-08 02:30N 44°05' E 029°03'3 6.3
2017-Oct-08 02:00N 44°02' E 029°02'3 6.0
2017-Oct-08 01:30N 43°59' E 029°01'3 5.5
2017-Oct-08 01:00N 43°56' E 029°00'2 4.5
2017-Oct-08 00:30N 43°54' E 028°60'2 4.1
2017-Oct-08 00:00N 43°56' E 028°60'4 8.9
2017-Oct-07 23:30N 44°01' E 029°02'4 8.8
2017-Oct-07 23:00N 44°05' E 029°04'4 8.4
2017-Oct-07 22:30N 44°09' E 029°05'1 2.2
2017-Oct-07 22:00N 44°10' E 029°05'2 4.7
2017-Oct-07 21:30N 44°08' E 029°04'2 4.5
2017-Oct-07 21:00N 44°05' E 029°03'2 4.4
2017-Oct-07 20:30N 44°03' E 029°03'2 4.1
2017-Oct-07 20:00N 44°01' E 029°02'2 3.4
2017-Oct-07 19:30N 43°60' E 029°01'1 1.2
2017-Oct-07 19:00N 43°60' E 029°02'3 6.0
2017-Oct-07 18:30N 44°03' E 029°01'4 7.6
2017-Oct-07 18:00N 44°07' E 029°01'2 4.7
2017-Oct-07 17:30N 44°09' E 029°01'1 2.2
2017-Oct-07 17:00N 44°10' E 029°00'2 4.3
2017-Oct-07 16:30N 44°08' E 029°00'2 4.4
2017-Oct-07 16:00N 44°05' E 029°00'2 4.3
2017-Oct-07 15:30N 44°03' E 029°00'2 4.4
2017-Oct-07 15:00N 44°01' E 029°00'2 4.6
2017-Oct-07 14:30N 43°59' E 029°00'2 4.8
2017-Oct-07 14:00N 43°56' E 029°00'2 3.4
2017-Oct-07 13:30N 43°55' E 029°00'4 7.5
2017-Oct-07 13:00N 43°59' E 029°00'4 8.3
2017-Oct-07 12:30N 44°03' E 029°01'4 8.1
2017-Oct-07 12:00N 44°07' E 029°02'3 7.0
2017-Oct-07 11:30N 44°10' E 029°02'1 1.2
2017-Oct-07 11:00N 44°10' E 029°01'3 5.7
2017-Oct-07 10:30N 44°07' E 029°01'3 5.7
2017-Oct-07 10:00N 44°04' E 029°01'3 5.8
2017-Oct-07 09:30N 44°01' E 029°01'3 5.6
2017-Oct-07 09:00N 43°58' E 029°01'1 1.6
2017-Oct-07 08:30N 43°58' E 029°02'4 8.0
2017-Oct-07 08:00N 44°02' E 029°02'4 7.9
2017-Oct-07 07:30N 44°06' E 029°01'4 7.4
2017-Oct-07 07:00N 44°09' E 029°01'2 3.5
2017-Oct-07 06:30N 44°09' E 028°59'3 6.0
2017-Oct-07 06:00N 44°07' E 028°56'4 7.6
2017-Oct-07 05:30N 44°04' E 028°53'611.1
2017-Oct-07 05:00N 43°59' E 028°56'713.9
2017-Oct-07 04:30N 43°59' E 029°06'713.8
2017-Oct-07 04:00N 43°60' E 029°16'714.0
2017-Oct-07 03:30N 44°00' E 029°25'34713.6
2017-Oct-06 02:05N 44°32' E 037°27'113.7
2017-Oct-06 02:00N 44°32' E 037°29'713.1
2017-Oct-06 01:30N 44°32' E 037°38'612.8
2017-Oct-06 01:00N 44°36' E 037°45'510.8
2017-Oct-06 00:30N 44°40' E 037°50'2 4.9
2017-Oct-06 00:00N 44°42' E 037°50'0 0.6
2017-Oct-05 23:30N 44°42' E 037°50'0 0.0
2017-Oct-05 23:00N 44°42' E 037°50'0 0.0
2017-Oct-05 22:30N 44°42' E 037°50'0 0.0
2017-Oct-05 22:00N 44°42' E 037°50'0 0.0
2017-Oct-05 21:30N 44°42' E 037°50'0 0.0
2017-Oct-05 21:00N 44°42' E 037°50'0 0.0
2017-Oct-05 20:30N 44°42' E 037°50'0 0.0
2017-Oct-05 20:00N 44°42' E 037°50'0 0.0
2017-Oct-05 19:30N 44°42' E 037°50'0 0.0
2017-Oct-05 19:00N 44°42' E 037°50'0 0.0
2017-Oct-05 18:30N 44°42' E 037°50'0 0.0
2017-Oct-05 18:00N 44°42' E 037°50'0 0.0
2017-Oct-05 17:30N 44°42' E 037°50'0 0.0
2017-Oct-05 17:00N 44°42' E 037°50'0 0.0
2017-Oct-05 15:30N 44°42' E 037°50'0 0.0
2017-Oct-05 14:57N 44°42' E 037°50'0 0.0
2017-Oct-05 14:30N 44°42' E 037°50'0 0.0
2017-Oct-05 14:00N 44°42' E 037°50'0 0.0
2017-Oct-05 13:30N 44°42' E 037°50'0 0.0
2017-Oct-05 13:00N 44°42' E 037°50'0 0.0
2017-Oct-05 12:27N 44°42' E 037°50'0 0.0
2017-Oct-05 12:00N 44°42' E 037°50'0 0.0
2017-Oct-05 11:30N 44°42' E 037°50'0 0.0
2017-Oct-05 11:00N 44°42' E 037°50'0 0.0
2017-Oct-05 10:30N 44°42' E 037°50'0 0.0
2017-Oct-05 10:00N 44°42' E 037°50'0 0.0
2017-Oct-05 09:30N 44°42' E 037°50'0 0.0
2017-Oct-05 09:00N 44°42' E 037°50'0 0.0
2017-Oct-05 08:30N 44°42' E 037°50'0 0.0
2017-Oct-05 08:00N 44°42' E 037°50'0 0.0
2017-Oct-05 07:30N 44°42' E 037°50'0 0.0
2017-Oct-05 07:00N 44°42' E 037°50'0 0.0
2017-Oct-05 06:30N 44°42' E 037°50'0 0.0
2017-Oct-05 06:00N 44°42' E 037°50'0 0.0
2017-Oct-05 05:30N 44°42' E 037°50'0 0.0
2017-Oct-05 05:00N 44°42' E 037°50'0 0.0
2017-Oct-05 04:30N 44°42' E 037°50'0 0.0
2017-Oct-05 04:00N 44°42' E 037°50'0 0.0
2017-Oct-05 03:30N 44°42' E 037°50'0 0.0
2017-Oct-05 03:00N 44°42' E 037°50'0 0.0
2017-Oct-05 02:30N 44°42' E 037°50'0 0.0
2017-Oct-05 02:00N 44°42' E 037°50'0 0.0
2017-Oct-05 01:30N 44°42' E 037°50'0 0.0
2017-Oct-05 01:00N 44°42' E 037°50'0 0.0
2017-Oct-05 00:30N 44°42' E 037°50'  
Track history (hours):
 
Tides and Currents Weather Stations Pressure Air Temp Water Temp Dewpoint Dewpoint Depression Visibility Wind Speed Wind Dir Waves Ship Positions

Besiktas Bosphorus

Last reported at 2017-Oct-15 00:08 UTC. Time now 2017-Oct-18 00:26 UTC.
Position N 44°08' E 034°03'.

Length 274 m; draft 9 m.

Type: Ship (hazmat cat D). MMSI: 271000817.

Date/timePositionNaut miles runAvg speedWind from/ knotsBaromVisibWave heightAir tempDewpointWater temp
2017-Oct-15 00:08N 44°08' E 034°03'4 8.0
2017-Oct-14 23:40N 44°08' E 033°58'2 8.2
2017-Oct-14 23:28N 44°08' E 033°56'195 7.0
2017-Oct-13 19:28N 43°59' E 029°25'613.8
2017-Oct-13 19:00N 43°59' E 029°16'713.7
2017-Oct-13 18:30N 43°59' E 029°07'713.4
2017-Oct-13 18:00N 43°59' E 028°57'612.8
2017-Oct-13 17:30N 43°59' E 028°49'713.2
2017-Oct-13 17:00N 44°04' E 028°43'5 9.2
2017-Oct-13 16:30N 44°08' E 028°41'1 1.3
2017-Oct-13 15:58N 44°09' E 028°40'0 0.0
2017-Oct-13 15:28N 44°09' E 028°40'0 0.0
2017-Oct-13 14:55N 44°09' E 028°40'0 0.0
2017-Oct-13 14:28N 44°09' E 028°40'0 0.0
2017-Oct-13 13:58N 44°09' E 028°40'0 0.0
2017-Oct-13 13:28N 44°09' E 028°40'0 0.0
2017-Oct-13 12:58N 44°09' E 028°40'0 0.0
2017-Oct-13 12:28N 44°09' E 028°40'0 0.0
2017-Oct-13 11:58N 44°09' E 028°40'0 0.0
2017-Oct-13 11:28N 44°09' E 028°40'0 0.0
2017-Oct-13 10:58N 44°09' E 028°40'0 0.0
2017-Oct-13 10:28N 44°09' E 028°40'0 0.0
2017-Oct-13 09:58N 44°09' E 028°40'0 0.0
2017-Oct-13 09:28N 44°09' E 028°40'0 0.0
2017-Oct-13 08:58N 44°09' E 028°40'0 0.0
2017-Oct-13 08:28N 44°09' E 028°40'0 0.0
2017-Oct-13 07:58N 44°09' E 028°40'0 0.0
2017-Oct-13 07:28N 44°09' E 028°40'0 0.0
2017-Oct-13 06:58N 44°09' E 028°40'0 0.0
2017-Oct-13 06:28N 44°09' E 028°40'0 0.0
2017-Oct-13 05:58N 44°09' E 028°40'0 0.0
2017-Oct-13 05:28N 44°09' E 028°40'0 0.0
2017-Oct-13 04:58N 44°09' E 028°40'0 0.0
2017-Oct-13 04:28N 44°09' E 028°40'0 0.0
2017-Oct-13 03:58N 44°09' E 028°40'0 0.0
2017-Oct-13 03:28N 44°09' E 028°40'0 0.0
2017-Oct-13 02:58N 44°09' E 028°40'0 0.0
2017-Oct-13 02:28N 44°09' E 028°40'0 0.0
2017-Oct-13 01:58N 44°09' E 028°40'0 0.0
2017-Oct-13 01:28N 44°09' E 028°40'0 0.0
2017-Oct-13 00:58N 44°09' E 028°40'0 0.0
2017-Oct-13 00:28N 44°09' E 028°40'0 0.0
2017-Oct-12 23:58N 44°09' E 028°40'0 0.0
2017-Oct-12 23:25N 44°09' E 028°40'0 0.0
2017-Oct-12 22:58N 44°09' E 028°40'0 0.0
2017-Oct-12 22:28N 44°09' E 028°40'0 0.0
2017-Oct-12 21:58N 44°09' E 028°40'0 0.0
2017-Oct-12 21:28N 44°09' E 028°40'0 0.0
2017-Oct-12 20:58N 44°09' E 028°40'0 0.0
2017-Oct-12 20:28N 44°09' E 028°40'0 0.0
2017-Oct-12 19:58N 44°09' E 028°40'0 0.0
2017-Oct-12 19:28N 44°09' E 028°40'0 0.0
2017-Oct-12 18:58N 44°09' E 028°40'0 0.0
2017-Oct-12 18:28N 44°09' E 028°40'0 0.0
2017-Oct-12 17:58N 44°09' E 028°40'0 0.0
2017-Oct-12 17:28N 44°09' E 028°40'0 0.0
2017-Oct-12 16:58N 44°09' E 028°40'0 0.0
2017-Oct-12 16:28N 44°09' E 028°40'0 0.0
2017-Oct-12 15:58N 44°09' E 028°40'0 0.0
2017-Oct-12 15:28N 44°09' E 028°40'0 0.0
2017-Oct-12 14:58N 44°09' E 028°40'0 0.0
2017-Oct-12 14:28N 44°09' E 028°40'0 0.0
2017-Oct-12 13:58N 44°09' E 028°40'0 0.0
2017-Oct-12 13:28N 44°09' E 028°40'0 0.0
2017-Oct-12 12:58N 44°09' E 028°40'0 0.0
2017-Oct-12 12:28N 44°09' E 028°40'0 0.0
2017-Oct-12 11:52N 44°09' E 028°40'0 0.0
2017-Oct-12 11:28N 44°09' E 028°40'0 0.0
2017-Oct-12 10:58N 44°09' E 028°40'0 0.0
2017-Oct-12 10:28N 44°09' E 028°40'0 0.0
2017-Oct-12 09:58N 44°09' E 028°40'0 0.0
2017-Oct-12 09:25N 44°09' E 028°40'0 0.0
2017-Oct-12 08:58N 44°09' E 028°40'0 0.0
2017-Oct-12 08:28N 44°09' E 028°40'0 0.0
2017-Oct-12 07:58N 44°09' E 028°40'0 0.0
2017-Oct-12 07:28N 44°09' E 028°40'0 0.0
2017-Oct-12 06:58N 44°09' E 028°40'0 0.0
2017-Oct-12 06:28N 44°09' E 028°40'0 0.0
2017-Oct-12 05:58N 44°09' E 028°40'0 0.0
2017-Oct-12 05:28N 44°09' E 028°40'0 0.0
2017-Oct-12 04:58N 44°09' E 028°40'0 0.0
2017-Oct-12 04:28N 44°09' E 028°40'0 0.0
2017-Oct-12 03:58N 44°09' E 028°40'0 0.0
2017-Oct-12 03:28N 44°09' E 028°40'0 0.0
2017-Oct-12 02:58N 44°09' E 028°40'0 0.0
2017-Oct-12 02:28N 44°09' E 028°40'0 0.0
2017-Oct-12 01:58N 44°09' E 028°40'0 0.0
2017-Oct-12 01:28N 44°09' E 028°40'0 0.0
2017-Oct-12 00:58N 44°09' E 028°40'0 0.0
2017-Oct-12 00:28N 44°09' E 028°40'0 0.0
2017-Oct-11 23:58N 44°09' E 028°40'0 0.0
2017-Oct-11 23:28N 44°09' E 028°40'0 0.0
2017-Oct-11 22:58N 44°09' E 028°40'0 0.0
2017-Oct-11 22:28N 44°09' E 028°40'0 0.0
2017-Oct-11 21:58N 44°09' E 028°40'0 0.0
2017-Oct-11 21:28N 44°09' E 028°40'0 0.0
2017-Oct-11 20:58N 44°09' E 028°40'0 0.0
2017-Oct-11 20:28N 44°09' E 028°40'0 0.0
2017-Oct-11 19:58N 44°09' E 028°40'0 0.0
2017-Oct-11 19:28N 44°09' E 028°40'0 0.0
2017-Oct-11 18:58N 44°09' E 028°40'0 0.0
2017-Oct-11 18:28N 44°09' E 028°40'0 0.0
2017-Oct-11 17:58N 44°09' E 028°40'0 0.0
2017-Oct-11 17:28N 44°09' E 028°40'0 0.0
2017-Oct-11 16:58N 44°09' E 028°40'0 0.0
2017-Oct-10 23:58N 44°09' E 028°40'0 0.0
2017-Oct-10 23:28N 44°09' E 028°40'0 0.0
2017-Oct-10 22:58N 44°09' E 028°40'0 0.0
2017-Oct-10 22:28N 44°09' E 028°40'0 0.0
2017-Oct-10 21:58N 44°09' E 028°40'0 0.0
2017-Oct-10 21:28N 44°09' E 028°40'0 0.0
2017-Oct-10 20:58N 44°09' E 028°40'0 0.0
2017-Oct-10 20:28N 44°09' E 028°40'0 0.0
2017-Oct-10 19:58N 44°09' E 028°40'0 0.0
2017-Oct-10 19:28N 44°09' E 028°40'0 0.0
2017-Oct-10 18:58N 44°09' E 028°40'0 0.0
2017-Oct-10 18:28N 44°09' E 028°40'0 0.0
2017-Oct-10 17:58N 44°09' E 028°40'0 0.0
2017-Oct-10 17:28N 44°09' E 028°40'0 0.0
2017-Oct-10 16:58N 44°09' E 028°40'0 0.0
2017-Oct-10 16:28N 44°09' E 028°40'0 0.0
2017-Oct-10 15:58N 44°09' E 028°40'0 0.0
2017-Oct-10 15:28N 44°09' E 028°40'0 0.0
2017-Oct-10 14:58N 44°09' E 028°40'0 0.0
2017-Oct-10 13:58N 44°09' E 028°40'0 0.0
2017-Oct-10 13:28N 44°09' E 028°40'0 0.0
2017-Oct-10 12:58N 44°09' E 028°40'0 0.0
2017-Oct-10 12:28N 44°09' E 028°40'0 0.0
2017-Oct-10 11:58N 44°09' E 028°40'0 0.0
2017-Oct-10 11:28N 44°09' E 028°40'0 0.0
2017-Oct-10 10:58N 44°09' E 028°40'0 0.0
2017-Oct-10 10:28N 44°09' E 028°40'0 0.0
2017-Oct-10 09:58N 44°09' E 028°40'0 0.0
2017-Oct-10 09:28N 44°09' E 028°40'0 0.0
2017-Oct-10 08:55N 44°09' E 028°40'0 0.0
2017-Oct-10 08:28N 44°09' E 028°40'0 0.0
2017-Oct-10 07:58N 44°09' E 028°40'0 0.0
2017-Oct-10 07:28N 44°09' E 028°40'0 0.0
2017-Oct-10 06:58N 44°09' E 028°40'0 0.0
2017-Oct-10 06:28N 44°09' E 028°40'0 0.0
2017-Oct-10 05:58N 44°09' E 028°40'0 0.0
2017-Oct-10 05:28N 44°09' E 028°40'0 0.0
2017-Oct-10 04:58N 44°09' E 028°40'0 0.0
2017-Oct-10 04:28N 44°09' E 028°40'0 0.0
2017-Oct-10 03:58N 44°09' E 028°40'0 0.0
2017-Oct-10 03:28N 44°09' E 028°40'0 0.0
2017-Oct-10 02:58N 44°09' E 028°40'0 0.0
2017-Oct-10 02:28N 44°09' E 028°40'0 0.0
2017-Oct-10 01:58N 44°09' E 028°40'0 0.0
2017-Oct-10 01:28N 44°09' E 028°40'0 0.0
2017-Oct-10 00:58N 44°09' E 028°40'0 0.0
2017-Oct-10 00:28N 44°09' E 028°40'0 0.0
2017-Oct-09 23:58N 44°09' E 028°40'0 0.0
2017-Oct-09 23:25N 44°09' E 028°40'0 0.0
2017-Oct-09 22:58N 44°09' E 028°40'0 0.0
2017-Oct-09 22:28N 44°09' E 028°40'0 0.0
2017-Oct-09 21:58N 44°09' E 028°40'0 0.0
2017-Oct-09 21:28N 44°09' E 028°40'0 0.0
2017-Oct-09 20:58N 44°09' E 028°40'0 0.0
2017-Oct-09 20:28N 44°09' E 028°40'0 0.0
2017-Oct-09 19:58N 44°09' E 028°40'0 0.0
2017-Oct-09 19:28N 44°09' E 028°40'0 0.0
2017-Oct-09 18:58N 44°09' E 028°40'0 0.0
2017-Oct-09 18:28N 44°09' E 028°40'0 0.0
2017-Oct-09 17:58N 44°09' E 028°40'0 0.0
2017-Oct-09 17:28N 44°09' E 028°40'0 0.0
2017-Oct-09 16:58N 44°09' E 028°40'0 0.0
2017-Oct-09 16:28N 44°09' E 028°40'0 0.0
2017-Oct-09 15:58N 44°09' E 028°40'0 0.0
2017-Oct-09 15:28N 44°09' E 028°40'0 0.0
2017-Oct-09 14:58N 44°09' E 028°40'0 0.0
2017-Oct-09 14:28N 44°09' E 028°40'0 0.0
2017-Oct-09 13:58N 44°09' E 028°40'0 0.0
2017-Oct-09 13:28N 44°09' E 028°40'0 0.0
2017-Oct-09 12:58N 44°09' E 028°40'0 0.0
2017-Oct-09 12:28N 44°09' E 028°40'0 0.0
2017-Oct-09 11:58N 44°09' E 028°40'0 0.0
2017-Oct-09 11:28N 44°09' E 028°40'0 0.0
2017-Oct-09 10:58N 44°09' E 028°40'0 0.0
2017-Oct-09 10:28N 44°09' E 028°40'0 0.0
2017-Oct-09 09:58N 44°09' E 028°40'0 0.0
2017-Oct-09 09:28N 44°09' E 028°40'0 0.0
2017-Oct-09 08:58N 44°09' E 028°40'0 0.0
2017-Oct-09 08:28N 44°09' E 028°40'0 0.0
2017-Oct-09 07:58N 44°09' E 028°40'0 0.0
2017-Oct-09 07:28N 44°09' E 028°40'0 0.0
2017-Oct-09 06:58N 44°09' E 028°40'0 0.0
2017-Oct-09 06:28N 44°09' E 028°40'0 0.0
2017-Oct-09 05:58N 44°09' E 028°40'0 0.0
2017-Oct-09 05:28N 44°09' E 028°40'0 0.0
2017-Oct-09 04:58N 44°09' E 028°40'0 0.0
2017-Oct-09 04:28N 44°09' E 028°40'0 0.0
2017-Oct-09 03:58N 44°09' E 028°40'0 0.0
2017-Oct-09 03:28N 44°09' E 028°40'0 0.0
2017-Oct-09 02:58N 44°09' E 028°40'0 0.0
2017-Oct-09 02:28N 44°09' E 028°40'0 0.0
2017-Oct-09 01:58N 44°09' E 028°40'0 0.0
2017-Oct-09 01:28N 44°09' E 028°40'0 0.0
2017-Oct-09 00:58N 44°09' E 028°40'0 0.0
2017-Oct-09 00:28N 44°09' E 028°40'0 0.0
2017-Oct-08 23:58N 44°09' E 028°40'0 0.0
2017-Oct-08 23:28N 44°09' E 028°40'0 0.0
2017-Oct-08 22:58N 44°09' E 028°40'0 0.0
2017-Oct-08 22:28N 44°09' E 028°40'0 0.0
2017-Oct-08 21:58N 44°09' E 028°40'0 0.0
2017-Oct-08 21:28N 44°09' E 028°40'0 0.0
2017-Oct-08 20:58N 44°09' E 028°40'0 0.0
2017-Oct-08 20:28N 44°09' E 028°40'0 0.0
2017-Oct-08 19:58N 44°09' E 028°40'0 0.0
2017-Oct-08 19:28N 44°09' E 028°40'0 0.0
2017-Oct-08 18:55N 44°09' E 028°40'0 0.0
2017-Oct-08 18:28N 44°09' E 028°40'0 0.0
2017-Oct-08 17:58N 44°09' E 028°40'0 0.0
2017-Oct-08 17:28N 44°09' E 028°40'0 0.0
2017-Oct-08 16:58N 44°09' E 028°40'0 0.0
2017-Oct-08 16:28N 44°09' E 028°40'0 0.0
2017-Oct-08 15:55N 44°09' E 028°40'0 0.0
2017-Oct-08 15:28N 44°09' E 028°40'0 0.0
2017-Oct-08 14:58N 44°09' E 028°40'0 0.0
2017-Oct-08 14:28N 44°09' E 028°40'0 0.0
2017-Oct-08 13:58N 44°09' E 028°40'0 0.0
2017-Oct-08 13:28N 44°09' E 028°40'0 0.0
2017-Oct-08 12:58N 44°09' E 028°40'0 0.0
2017-Oct-08 12:28N 44°09' E 028°40'0 0.0
2017-Oct-08 11:58N 44°09' E 028°40'0 0.0
2017-Oct-08 11:28N 44°09' E 028°40'0 0.0
2017-Oct-08 10:58N 44°09' E 028°40'0 0.0
2017-Oct-08 10:28N 44°09' E 028°40'0 0.0
2017-Oct-08 09:58N 44°09' E 028°40'0 0.0
2017-Oct-08 09:30N 44°09' E 028°40'0 0.7
2017-Oct-08 09:00N 44°08' E 028°40'2 4.5
2017-Oct-08 08:30N 44°07' E 028°42'4 8.3
2017-Oct-08 08:00N 44°03' E 028°46'3 6.0
2017-Oct-08 07:30N 44°01' E 028°48'4 7.9
2017-Oct-08 07:00N 43°59' E 028°53'612.1
2017-Oct-08 06:30N 44°01' E 029°01'2 3.8
2017-Oct-08 06:00N 43°59' E 029°02'2 4.4
2017-Oct-08 05:31N 43°57' E 029°00'4 7.7
2017-Oct-08 05:00N 44°01' E 029°01'4 8.2
2017-Oct-08 04:30N 44°05' E 029°03'4 7.8
2017-Oct-08 04:00N 44°09' E 029°05'3 5.5
2017-Oct-08 03:30N 44°11' E 029°06'3 6.4
2017-Oct-08 03:00N 44°08' E 029°05'3 6.6
2017-Oct-08 02:30N 44°05' E 029°03'3 6.3
2017-Oct-08 02:00N 44°02' E 029°02'3 6.0
2017-Oct-08 01:30N 43°59' E 029°01'3 5.5
2017-Oct-08 01:00N 43°56' E 029°00'2 4.5
2017-Oct-08 00:30N 43°54' E 028°60'2 4.1
2017-Oct-08 00:00N 43°56' E 028°60'4 8.9
2017-Oct-07 23:30N 44°01' E 029°02'4 8.8
2017-Oct-07 23:00N 44°05' E 029°04'4 8.4
2017-Oct-07 22:30N 44°09' E 029°05'1 2.2
2017-Oct-07 22:00N 44°10' E 029°05'2 4.7
2017-Oct-07 21:30N 44°08' E 029°04'2 4.5
2017-Oct-07 21:00N 44°05' E 029°03'2 4.4
2017-Oct-07 20:30N 44°03' E 029°03'2 4.1
2017-Oct-07 20:00N 44°01' E 029°02'2 3.4
2017-Oct-07 19:30N 43°60' E 029°01'1 1.2
2017-Oct-07 19:00N 43°60' E 029°02'3 6.0
2017-Oct-07 18:30N 44°03' E 029°01'4 7.6
2017-Oct-07 18:00N 44°07' E 029°01'2 4.7
2017-Oct-07 17:30N 44°09' E 029°01'1 2.2
2017-Oct-07 17:00N 44°10' E 029°00'2 4.3
2017-Oct-07 16:30N 44°08' E 029°00'2 4.4
2017-Oct-07 16:00N 44°05' E 029°00'2 4.3
2017-Oct-07 15:30N 44°03' E 029°00'2 4.4
2017-Oct-07 15:00N 44°01' E 029°00'2 4.6
2017-Oct-07 14:30N 43°59' E 029°00'2 4.8
2017-Oct-07 14:00N 43°56' E 029°00'2 3.4
2017-Oct-07 13:30N 43°55' E 029°00'4 7.5
2017-Oct-07 13:00N 43°59' E 029°00'4 8.3
2017-Oct-07 12:30N 44°03' E 029°01'4 8.1
2017-Oct-07 12:00N 44°07' E 029°02'3 7.0
2017-Oct-07 11:30N 44°10' E 029°02'1 1.2
2017-Oct-07 11:00N 44°10' E 029°01'3 5.7
2017-Oct-07 10:30N 44°07' E 029°01'3 5.7
2017-Oct-07 10:00N 44°04' E 029°01'3 5.8
2017-Oct-07 09:30N 44°01' E 029°01'3 5.6
2017-Oct-07 09:00N 43°58' E 029°01'1 1.6
2017-Oct-07 08:30N 43°58' E 029°02'4 8.0
2017-Oct-07 08:00N 44°02' E 029°02'4 7.9
2017-Oct-07 07:30N 44°06' E 029°01'4 7.4
2017-Oct-07 07:00N 44°09' E 029°01'2 3.5
2017-Oct-07 06:30N 44°09' E 028°59'3 6.0
2017-Oct-07 06:00N 44°07' E 028°56'4 7.6
2017-Oct-07 05:30N 44°04' E 028°53'611.1
2017-Oct-07 05:00N 43°59' E 028°56'713.9
2017-Oct-07 04:30N 43°59' E 029°06'713.8
2017-Oct-07 04:00N 43°60' E 029°16'714.0
2017-Oct-07 03:30N 44°00' E 029°25'34713.6
2017-Oct-06 02:05N 44°32' E 037°27'113.7
2017-Oct-06 02:00N 44°32' E 037°29'713.1
2017-Oct-06 01:30N 44°32' E 037°38'612.8
2017-Oct-06 01:00N 44°36' E 037°45'510.8
2017-Oct-06 00:30N 44°40' E 037°50'2 4.9
2017-Oct-06 00:00N 44°42' E 037°50'0 0.6
2017-Oct-05 23:30N 44°42' E 037°50'0 0.0
2017-Oct-05 23:00N 44°42' E 037°50'0 0.0
2017-Oct-05 22:30N 44°42' E 037°50'0 0.0
2017-Oct-05 22:00N 44°42' E 037°50'0 0.0
2017-Oct-05 21:30N 44°42' E 037°50'0 0.0
2017-Oct-05 21:00N 44°42' E 037°50'0 0.0
2017-Oct-05 20:30N 44°42' E 037°50'0 0.0
2017-Oct-05 20:00N 44°42' E 037°50'0 0.0
2017-Oct-05 19:30N 44°42' E 037°50'0 0.0
2017-Oct-05 19:00N 44°42' E 037°50'0 0.0
2017-Oct-05 18:30N 44°42' E 037°50'0 0.0
2017-Oct-05 18:00N 44°42' E 037°50'0 0.0
2017-Oct-05 17:30N 44°42' E 037°50'0 0.0
2017-Oct-05 17:00N 44°42' E 037°50'0 0.0
2017-Oct-05 15:30N 44°42' E 037°50'0 0.0
2017-Oct-05 14:57N 44°42' E 037°50'0 0.0
2017-Oct-05 14:30N 44°42' E 037°50'0 0.0
2017-Oct-05 14:00N 44°42' E 037°50'0 0.0
2017-Oct-05 13:30N 44°42' E 037°50'0 0.0
2017-Oct-05 13:00N 44°42' E 037°50'0 0.0
2017-Oct-05 12:27N 44°42' E 037°50'0 0.0
2017-Oct-05 12:00N 44°42' E 037°50'0 0.0
2017-Oct-05 11:30N 44°42' E 037°50'0 0.0
2017-Oct-05 11:00N 44°42' E 037°50'0 0.0
2017-Oct-05 10:30N 44°42' E 037°50'0 0.0
2017-Oct-05 10:00N 44°42' E 037°50'0 0.0
2017-Oct-05 09:30N 44°42' E 037°50'0 0.0
2017-Oct-05 09:00N 44°42' E 037°50'0 0.0
2017-Oct-05 08:30N 44°42' E 037°50'0 0.0
2017-Oct-05 08:00N 44°42' E 037°50'0 0.0
2017-Oct-05 07:30N 44°42' E 037°50'0 0.0
2017-Oct-05 07:00N 44°42' E 037°50'0 0.0
2017-Oct-05 06:30N 44°42' E 037°50'0 0.0
2017-Oct-05 06:00N 44°42' E 037°50'0 0.0
2017-Oct-05 05:30N 44°42' E 037°50'0 0.0
2017-Oct-05 05:00N 44°42' E 037°50'0 0.0
2017-Oct-05 04:30N 44°42' E 037°50'0 0.0
2017-Oct-05 04:00N 44°42' E 037°50'0 0.0
2017-Oct-05 03:30N 44°42' E 037°50'0 0.0
2017-Oct-05 03:00N 44°42' E 037°50'0 0.0
2017-Oct-05 02:30N 44°42' E 037°50'0 0.0
2017-Oct-05 02:00N 44°42' E 037°50'0 0.0
2017-Oct-05 01:30N 44°42' E 037°50'0 0.0
2017-Oct-05 01:00N 44°42' E 037°50'0 0.0
2017-Oct-05 00:30N 44°42' E 037°50'  

Dump ship's entire track history